sensor_id;sensor_type;location;lat;lon;timestamp;P1;durP1;ratioP1;P2;durP2;ratioP2
81217;SDS011;70689;52.494;13.420;2023-07-31T00:00:24;2.33;;;1.52;;
81217;SDS011;70689;52.494;13.420;2023-07-31T00:02:51;4.53;;;1.67;;
81217;SDS011;70689;52.494;13.420;2023-07-31T00:05:17;5.40;;;2.15;;
81217;SDS011;70689;52.494;13.420;2023-07-31T00:07:43;6.03;;;2.08;;
81217;SDS011;70689;52.494;13.420;2023-07-31T00:10:09;3.78;;;1.60;;
81217;SDS011;70689;52.494;13.420;2023-07-31T00:12:35;4.78;;;1.85;;
81217;SDS011;70689;52.494;13.420;2023-07-31T00:15:00;4.90;;;1.70;;
81217;SDS011;70689;52.494;13.420;2023-07-31T00:17:27;4.28;;;1.85;;
81217;SDS011;70689;52.494;13.420;2023-07-31T00:19:53;5.65;;;1.80;;
81217;SDS011;70689;52.494;13.420;2023-07-31T00:22:19;4.95;;;1.67;;
81217;SDS011;70689;52.494;13.420;2023-07-31T00:24:44;5.13;;;1.75;;
81217;SDS011;70689;52.494;13.420;2023-07-31T00:27:10;7.07;;;1.80;;
81217;SDS011;70689;52.494;13.420;2023-07-31T00:29:36;4.43;;;1.90;;
81217;SDS011;70689;52.494;13.420;2023-07-31T00:32:02;4.50;;;1.60;;
81217;SDS011;70689;52.494;13.420;2023-07-31T00:34:27;4.50;;;1.88;;
81217;SDS011;70689;52.494;13.420;2023-07-31T00:36:53;4.25;;;1.80;;
81217;SDS011;70689;52.494;13.420;2023-07-31T00:39:19;5.22;;;1.80;;
81217;SDS011;70689;52.494;13.420;2023-07-31T00:41:44;4.60;;;2.20;;
81217;SDS011;70689;52.494;13.420;2023-07-31T00:44:10;2.40;;;1.60;;
81217;SDS011;70689;52.494;13.420;2023-07-31T00:46:36;5.10;;;1.88;;
81217;SDS011;70689;52.494;13.420;2023-07-31T00:49:02;3.33;;;2.10;;
81217;SDS011;70689;52.494;13.420;2023-07-31T00:51:28;6.07;;;2.42;;
81217;SDS011;70689;52.494;13.420;2023-07-31T00:53:54;5.43;;;2.15;;
81217;SDS011;70689;52.494;13.420;2023-07-31T00:56:20;2.30;;;2.00;;
81217;SDS011;70689;52.494;13.420;2023-07-31T00:58:47;5.35;;;2.17;;
81217;SDS011;70689;52.494;13.420;2023-07-31T01:01:12;3.42;;;2.00;;
81217;SDS011;70689;52.494;13.420;2023-07-31T01:03:38;3.95;;;2.13;;
81217;SDS011;70689;52.494;13.420;2023-07-31T01:08:54;6.60;;;2.28;;
81217;SDS011;70689;52.494;13.420;2023-07-31T01:11:28;3.67;;;2.20;;
81217;SDS011;70689;52.494;13.420;2023-07-31T01:13:56;3.90;;;2.33;;
81217;SDS011;70689;52.494;13.420;2023-07-31T01:16:22;2.78;;;2.05;;
81217;SDS011;70689;52.494;13.420;2023-07-31T01:18:48;5.90;;;2.20;;
81217;SDS011;70689;52.494;13.420;2023-07-31T01:27:04;5.65;;;2.25;;
81217;SDS011;70689;52.494;13.420;2023-07-31T01:29:47;4.53;;;2.30;;
81217;SDS011;70689;52.494;13.420;2023-07-31T01:32:35;4.85;;;2.38;;
81217;SDS011;70689;52.494;13.420;2023-07-31T01:35:04;4.60;;;2.55;;
81217;SDS011;70689;52.494;13.420;2023-07-31T01:37:30;5.50;;;2.40;;
81217;SDS011;70689;52.494;13.420;2023-07-31T01:39:55;4.80;;;2.50;;
81217;SDS011;70689;52.494;13.420;2023-07-31T01:42:21;3.95;;;2.33;;
81217;SDS011;70689;52.494;13.420;2023-07-31T01:44:47;5.53;;;2.30;;
81217;SDS011;70689;52.494;13.420;2023-07-31T01:47:12;4.03;;;2.38;;
81217;SDS011;70689;52.494;13.420;2023-07-31T01:49:38;4.15;;;2.50;;
81217;SDS011;70689;52.494;13.420;2023-07-31T01:52:04;5.07;;;2.53;;
81217;SDS011;70689;52.494;13.420;2023-07-31T01:54:30;3.90;;;2.28;;
81217;SDS011;70689;52.494;13.420;2023-07-31T01:56:55;5.40;;;2.25;;
81217;SDS011;70689;52.494;13.420;2023-07-31T01:59:21;5.95;;;2.30;;
81217;SDS011;70689;52.494;13.420;2023-07-31T02:01:47;4.97;;;2.38;;
81217;SDS011;70689;52.494;13.420;2023-07-31T02:04:12;4.80;;;2.50;;
81217;SDS011;70689;52.494;13.420;2023-07-31T02:06:38;4.47;;;2.40;;
81217;SDS011;70689;52.494;13.420;2023-07-31T02:09:04;4.00;;;2.60;;
81217;SDS011;70689;52.494;13.420;2023-07-31T02:11:30;3.95;;;2.20;;
81217;SDS011;70689;52.494;13.420;2023-07-31T02:13:55;4.50;;;2.47;;
81217;SDS011;70689;52.494;13.420;2023-07-31T02:16:21;5.18;;;2.60;;
81217;SDS011;70689;52.494;13.420;2023-07-31T02:18:47;3.90;;;2.38;;
81217;SDS011;70689;52.494;13.420;2023-07-31T02:21:12;6.57;;;2.30;;
81217;SDS011;70689;52.494;13.420;2023-07-31T02:23:38;5.00;;;2.40;;
81217;SDS011;70689;52.494;13.420;2023-07-31T02:26:04;4.35;;;2.50;;
81217;SDS011;70689;52.494;13.420;2023-07-31T02:28:29;4.60;;;2.53;;
81217;SDS011;70689;52.494;13.420;2023-07-31T02:30:55;4.35;;;2.50;;
81217;SDS011;70689;52.494;13.420;2023-07-31T02:33:21;5.25;;;2.67;;
81217;SDS011;70689;52.494;13.420;2023-07-31T02:35:46;5.40;;;2.63;;
81217;SDS011;70689;52.494;13.420;2023-07-31T02:38:12;5.45;;;2.65;;
81217;SDS011;70689;52.494;13.420;2023-07-31T02:40:39;6.57;;;2.45;;
81217;SDS011;70689;52.494;13.420;2023-07-31T02:43:06;4.70;;;2.85;;
81217;SDS011;70689;52.494;13.420;2023-07-31T02:45:32;4.55;;;2.80;;
81217;SDS011;70689;52.494;13.420;2023-07-31T02:47:58;5.40;;;2.63;;
81217;SDS011;70689;52.494;13.420;2023-07-31T02:50:23;4.60;;;2.75;;
81217;SDS011;70689;52.494;13.420;2023-07-31T02:52:49;4.40;;;2.58;;
81217;SDS011;70689;52.494;13.420;2023-07-31T02:55:15;7.20;;;2.75;;
81217;SDS011;70689;52.494;13.420;2023-07-31T02:57:40;7.07;;;2.67;;
81217;SDS011;70689;52.494;13.420;2023-07-31T03:00:06;7.82;;;2.92;;
81217;SDS011;70689;52.494;13.420;2023-07-31T03:02:32;5.05;;;3.30;;
81217;SDS011;70689;52.494;13.420;2023-07-31T03:04:58;4.43;;;3.17;;
81217;SDS011;70689;52.494;13.420;2023-07-31T03:07:23;7.15;;;3.15;;
81217;SDS011;70689;52.494;13.420;2023-07-31T03:09:49;5.35;;;3.30;;
81217;SDS011;70689;52.494;13.420;2023-07-31T03:12:14;6.75;;;3.25;;
81217;SDS011;70689;52.494;13.420;2023-07-31T03:14:40;5.95;;;3.47;;
81217;SDS011;70689;52.494;13.420;2023-07-31T03:17:06;4.97;;;3.35;;
81217;SDS011;70689;52.494;13.420;2023-07-31T03:19:31;4.78;;;3.33;;
81217;SDS011;70689;52.494;13.420;2023-07-31T03:21:58;7.57;;;3.55;;
81217;SDS011;70689;52.494;13.420;2023-07-31T03:24:24;8.15;;;3.55;;
81217;SDS011;70689;52.494;13.420;2023-07-31T03:26:50;6.25;;;3.58;;
81217;SDS011;70689;52.494;13.420;2023-07-31T03:29:16;4.85;;;3.83;;
81217;SDS011;70689;52.494;13.420;2023-07-31T03:31:41;5.65;;;3.42;;
81217;SDS011;70689;52.494;13.420;2023-07-31T03:34:07;5.35;;;3.35;;
81217;SDS011;70689;52.494;13.420;2023-07-31T03:36:33;6.68;;;3.47;;
81217;SDS011;70689;52.494;13.420;2023-07-31T03:38:59;6.15;;;4.07;;
81217;SDS011;70689;52.494;13.420;2023-07-31T03:41:24;8.48;;;3.92;;
81217;SDS011;70689;52.494;13.420;2023-07-31T03:43:50;10.35;;;3.90;;
81217;SDS011;70689;52.494;13.420;2023-07-31T03:46:21;9.18;;;4.00;;
81217;SDS011;70689;52.494;13.420;2023-07-31T03:48:47;6.22;;;3.83;;
81217;SDS011;70689;52.494;13.420;2023-07-31T03:51:13;6.97;;;3.85;;
81217;SDS011;70689;52.494;13.420;2023-07-31T03:53:39;7.65;;;3.58;;
81217;SDS011;70689;52.494;13.420;2023-07-31T03:56:04;7.07;;;3.85;;
81217;SDS011;70689;52.494;13.420;2023-07-31T03:58:30;8.13;;;3.60;;
81217;SDS011;70689;52.494;13.420;2023-07-31T04:00:56;5.90;;;3.65;;
81217;SDS011;70689;52.494;13.420;2023-07-31T04:03:21;6.07;;;3.72;;
81217;SDS011;70689;52.494;13.420;2023-07-31T04:05:47;6.35;;;3.60;;
81217;SDS011;70689;52.494;13.420;2023-07-31T04:08:13;5.03;;;3.42;;
81217;SDS011;70689;52.494;13.420;2023-07-31T04:10:38;9.93;;;3.95;;
81217;SDS011;70689;52.494;13.420;2023-07-31T04:13:07;6.97;;;3.88;;
81217;SDS011;70689;52.494;13.420;2023-07-31T04:15:33;6.55;;;3.72;;
81217;SDS011;70689;52.494;13.420;2023-07-31T04:17:59;5.20;;;3.80;;
81217;SDS011;70689;52.494;13.420;2023-07-31T04:20:25;6.90;;;3.55;;
81217;SDS011;70689;52.494;13.420;2023-07-31T04:22:50;5.20;;;3.50;;
81217;SDS011;70689;52.494;13.420;2023-07-31T04:25:16;5.22;;;4.03;;
81217;SDS011;70689;52.494;13.420;2023-07-31T04:27:41;8.20;;;3.85;;
81217;SDS011;70689;52.494;13.420;2023-07-31T04:30:07;8.90;;;3.80;;
81217;SDS011;70689;52.494;13.420;2023-07-31T04:32:35;6.63;;;3.40;;
81217;SDS011;70689;52.494;13.420;2023-07-31T04:35:01;10.23;;;4.07;;
81217;SDS011;70689;52.494;13.420;2023-07-31T04:37:27;6.30;;;3.80;;
81217;SDS011;70689;52.494;13.420;2023-07-31T04:39:53;10.35;;;3.60;;
81217;SDS011;70689;52.494;13.420;2023-07-31T04:42:19;6.60;;;3.80;;
81217;SDS011;70689;52.494;13.420;2023-07-31T04:44:44;4.15;;;3.60;;
81217;SDS011;70689;52.494;13.420;2023-07-31T04:47:10;6.88;;;4.07;;
81217;SDS011;70689;52.494;13.420;2023-07-31T04:49:36;12.05;;;4.10;;
81217;SDS011;70689;52.494;13.420;2023-07-31T04:52:02;7.65;;;4.13;;
81217;SDS011;70689;52.494;13.420;2023-07-31T04:54:27;10.32;;;4.10;;
81217;SDS011;70689;52.494;13.420;2023-07-31T04:56:53;6.30;;;3.80;;
81217;SDS011;70689;52.494;13.420;2023-07-31T04:59:19;6.75;;;3.88;;
81217;SDS011;70689;52.494;13.420;2023-07-31T05:01:44;8.13;;;3.92;;
81217;SDS011;70689;52.494;13.420;2023-07-31T05:04:12;6.25;;;4.05;;
81217;SDS011;70689;52.494;13.420;2023-07-31T05:06:39;6.72;;;4.07;;
81217;SDS011;70689;52.494;13.420;2023-07-31T05:09:05;8.88;;;4.03;;
81217;SDS011;70689;52.494;13.420;2023-07-31T05:11:30;12.10;;;3.80;;
81217;SDS011;70689;52.494;13.420;2023-07-31T05:13:56;6.45;;;3.83;;
81217;SDS011;70689;52.494;13.420;2023-07-31T05:16:22;8.07;;;4.22;;
81217;SDS011;70689;52.494;13.420;2023-07-31T05:18:47;12.60;;;5.10;;
81217;SDS011;70689;52.494;13.420;2023-07-31T05:21:13;7.13;;;3.80;;
81217;SDS011;70689;52.494;13.420;2023-07-31T05:23:39;5.38;;;3.50;;
81217;SDS011;70689;52.494;13.420;2023-07-31T05:26:05;8.18;;;3.42;;
81217;SDS011;70689;52.494;13.420;2023-07-31T05:28:31;6.90;;;3.40;;
81217;SDS011;70689;52.494;13.420;2023-07-31T05:30:59;8.48;;;3.58;;
81217;SDS011;70689;52.494;13.420;2023-07-31T05:33:26;5.75;;;3.53;;
81217;SDS011;70689;52.494;13.420;2023-07-31T05:35:52;10.82;;;3.40;;
81217;SDS011;70689;52.494;13.420;2023-07-31T05:38:18;5.78;;;3.25;;
81217;SDS011;70689;52.494;13.420;2023-07-31T05:40:44;8.35;;;3.70;;
81217;SDS011;70689;52.494;13.420;2023-07-31T05:43:09;5.80;;;2.90;;
81217;SDS011;70689;52.494;13.420;2023-07-31T05:45:35;7.22;;;3.05;;
81217;SDS011;70689;52.494;13.420;2023-07-31T05:48:01;8.38;;;3.33;;
81217;SDS011;70689;52.494;13.420;2023-07-31T05:50:28;9.00;;;3.40;;
81217;SDS011;70689;52.494;13.420;2023-07-31T05:52:53;6.10;;;3.13;;
81217;SDS011;70689;52.494;13.420;2023-07-31T05:55:19;8.43;;;3.20;;
81217;SDS011;70689;52.494;13.420;2023-07-31T05:57:45;4.57;;;2.80;;
81217;SDS011;70689;52.494;13.420;2023-07-31T06:00:12;10.77;;;3.20;;
81217;SDS011;70689;52.494;13.420;2023-07-31T06:02:38;4.30;;;3.05;;
81217;SDS011;70689;52.494;13.420;2023-07-31T06:05:04;6.43;;;3.10;;
81217;SDS011;70689;52.494;13.420;2023-07-31T06:07:31;5.25;;;2.90;;
81217;SDS011;70689;52.494;13.420;2023-07-31T06:09:57;5.40;;;2.92;;
81217;SDS011;70689;52.494;13.420;2023-07-31T06:12:28;5.35;;;2.90;;
81217;SDS011;70689;52.494;13.420;2023-07-31T06:14:53;6.97;;;3.00;;
81217;SDS011;70689;52.494;13.420;2023-07-31T06:17:20;5.00;;;3.00;;
81217;SDS011;70689;52.494;13.420;2023-07-31T06:19:46;5.15;;;2.70;;
81217;SDS011;70689;52.494;13.420;2023-07-31T06:22:12;4.43;;;2.70;;
81217;SDS011;70689;52.494;13.420;2023-07-31T06:24:38;5.78;;;2.72;;
81217;SDS011;70689;52.494;13.420;2023-07-31T06:27:03;5.78;;;2.92;;
81217;SDS011;70689;52.494;13.420;2023-07-31T06:29:30;5.00;;;2.63;;
81217;SDS011;70689;52.494;13.420;2023-07-31T06:31:56;5.75;;;2.80;;
81217;SDS011;70689;52.494;13.420;2023-07-31T06:34:22;6.28;;;2.60;;
81217;SDS011;70689;52.494;13.420;2023-07-31T06:36:48;6.95;;;2.90;;
81217;SDS011;70689;52.494;13.420;2023-07-31T06:39:13;9.18;;;3.05;;
81217;SDS011;70689;52.494;13.420;2023-07-31T06:41:39;5.65;;;2.50;;
81217;SDS011;70689;52.494;13.420;2023-07-31T06:44:05;4.95;;;2.53;;
81217;SDS011;70689;52.494;13.420;2023-07-31T06:46:30;5.28;;;2.30;;
81217;SDS011;70689;52.494;13.420;2023-07-31T06:48:56;5.63;;;2.80;;
81217;SDS011;70689;52.494;13.420;2023-07-31T06:51:22;5.85;;;2.50;;
81217;SDS011;70689;52.494;13.420;2023-07-31T06:53:47;3.75;;;2.35;;
81217;SDS011;70689;52.494;13.420;2023-07-31T06:56:13;5.15;;;2.60;;
81217;SDS011;70689;52.494;13.420;2023-07-31T06:58:39;5.80;;;2.60;;
81217;SDS011;70689;52.494;13.420;2023-07-31T07:01:04;4.95;;;2.28;;
81217;SDS011;70689;52.494;13.420;2023-07-31T07:03:30;6.93;;;2.70;;
81217;SDS011;70689;52.494;13.420;2023-07-31T07:05:57;4.45;;;2.50;;
81217;SDS011;70689;52.494;13.420;2023-07-31T07:08:23;5.55;;;2.38;;
81217;SDS011;70689;52.494;13.420;2023-07-31T07:10:49;4.85;;;2.60;;
81217;SDS011;70689;52.494;13.420;2023-07-31T07:13:15;4.55;;;2.65;;
81217;SDS011;70689;52.494;13.420;2023-07-31T07:15:41;4.25;;;2.40;;
81217;SDS011;70689;52.494;13.420;2023-07-31T07:18:07;4.60;;;2.60;;
81217;SDS011;70689;52.494;13.420;2023-07-31T07:20:32;5.32;;;2.60;;
81217;SDS011;70689;52.494;13.420;2023-07-31T07:22:58;4.03;;;2.42;;
81217;SDS011;70689;52.494;13.420;2023-07-31T07:25:23;5.20;;;2.70;;
81217;SDS011;70689;52.494;13.420;2023-07-31T07:27:49;5.80;;;2.63;;
81217;SDS011;70689;52.494;13.420;2023-07-31T07:30:15;4.85;;;2.38;;
81217;SDS011;70689;52.494;13.420;2023-07-31T07:32:40;4.30;;;2.30;;
81217;SDS011;70689;52.494;13.420;2023-07-31T07:35:06;6.13;;;2.50;;
81217;SDS011;70689;52.494;13.420;2023-07-31T07:37:32;5.40;;;2.75;;
81217;SDS011;70689;52.494;13.420;2023-07-31T07:39:58;2.97;;;2.28;;
81217;SDS011;70689;52.494;13.420;2023-07-31T07:42:24;3.30;;;2.53;;
81217;SDS011;70689;52.494;13.420;2023-07-31T07:44:50;6.10;;;2.63;;
81217;SDS011;70689;52.494;13.420;2023-07-31T07:47:15;4.97;;;2.35;;
81217;SDS011;70689;52.494;13.420;2023-07-31T07:49:41;4.75;;;2.50;;
81217;SDS011;70689;52.494;13.420;2023-07-31T07:52:07;5.55;;;2.30;;
81217;SDS011;70689;52.494;13.420;2023-07-31T07:54:32;3.83;;;2.28;;
81217;SDS011;70689;52.494;13.420;2023-07-31T07:56:58;3.80;;;2.35;;
81217;SDS011;70689;52.494;13.420;2023-07-31T07:59:24;4.07;;;2.30;;
81217;SDS011;70689;52.494;13.420;2023-07-31T08:01:50;3.38;;;2.13;;
81217;SDS011;70689;52.494;13.420;2023-07-31T08:04:15;4.32;;;2.10;;
81217;SDS011;70689;52.494;13.420;2023-07-31T08:06:41;5.05;;;2.40;;
81217;SDS011;70689;52.494;13.420;2023-07-31T08:09:07;3.85;;;2.30;;
81217;SDS011;70689;52.494;13.420;2023-07-31T08:11:34;6.30;;;2.40;;
81217;SDS011;70689;52.494;13.420;2023-07-31T08:14:00;4.38;;;2.22;;
81217;SDS011;70689;52.494;13.420;2023-07-31T08:16:25;4.82;;;2.30;;
81217;SDS011;70689;52.494;13.420;2023-07-31T08:18:51;4.35;;;2.13;;
81217;SDS011;70689;52.494;13.420;2023-07-31T08:21:17;4.57;;;2.10;;
81217;SDS011;70689;52.494;13.420;2023-07-31T08:23:43;4.93;;;1.80;;
81217;SDS011;70689;52.494;13.420;2023-07-31T08:26:14;3.38;;;2.13;;
81217;SDS011;70689;52.494;13.420;2023-07-31T08:28:40;4.65;;;2.10;;
81217;SDS011;70689;52.494;13.420;2023-07-31T08:31:06;4.40;;;2.28;;
81217;SDS011;70689;52.494;13.420;2023-07-31T08:33:31;4.20;;;2.50;;
81217;SDS011;70689;52.494;13.420;2023-07-31T08:35:57;2.35;;;2.10;;
81217;SDS011;70689;52.494;13.420;2023-07-31T08:38:24;2.75;;;2.08;;
81217;SDS011;70689;52.494;13.420;2023-07-31T08:40:51;3.83;;;2.40;;
81217;SDS011;70689;52.494;13.420;2023-07-31T08:43:17;3.72;;;2.15;;
81217;SDS011;70689;52.494;13.420;2023-07-31T08:45:43;3.85;;;2.72;;
81217;SDS011;70689;52.494;13.420;2023-07-31T08:48:09;3.40;;;2.40;;
81217;SDS011;70689;52.494;13.420;2023-07-31T08:50:37;3.75;;;2.35;;
81217;SDS011;70689;52.494;13.420;2023-07-31T08:53:03;4.15;;;2.50;;
81217;SDS011;70689;52.494;13.420;2023-07-31T08:55:29;4.88;;;2.67;;
81217;SDS011;70689;52.494;13.420;2023-07-31T08:57:57;2.90;;;2.40;;
81217;SDS011;70689;52.494;13.420;2023-07-31T09:00:26;2.45;;;2.10;;
81217;SDS011;70689;52.494;13.420;2023-07-31T09:03:02;4.70;;;2.38;;
81217;SDS011;70689;52.494;13.420;2023-07-31T09:05:33;3.60;;;1.90;;
81217;SDS011;70689;52.494;13.420;2023-07-31T09:07:59;3.78;;;2.28;;
81217;SDS011;70689;52.494;13.420;2023-07-31T09:10:27;5.05;;;2.03;;
81217;SDS011;70689;52.494;13.420;2023-07-31T09:12:52;3.85;;;2.25;;
81217;SDS011;70689;52.494;13.420;2023-07-31T09:15:18;2.67;;;2.10;;
81217;SDS011;70689;52.494;13.420;2023-07-31T09:17:44;2.90;;;1.95;;
81217;SDS011;70689;52.494;13.420;2023-07-31T09:20:13;2.95;;;1.98;;
81217;SDS011;70689;52.494;13.420;2023-07-31T09:22:39;3.33;;;1.80;;
81217;SDS011;70689;52.494;13.420;2023-07-31T09:25:18;3.45;;;1.60;;
81217;SDS011;70689;52.494;13.420;2023-07-31T09:28:05;2.63;;;1.65;;
81217;SDS011;70689;52.494;13.420;2023-07-31T09:30:45;2.40;;;1.67;;
81217;SDS011;70689;52.494;13.420;2023-07-31T09:33:13;2.33;;;1.52;;
81217;SDS011;70689;52.494;13.420;2023-07-31T09:35:38;2.70;;;1.48;;
81217;SDS011;70689;52.494;13.420;2023-07-31T09:38:12;2.13;;;1.50;;
81217;SDS011;70689;52.494;13.420;2023-07-31T09:40:40;2.13;;;1.33;;
81217;SDS011;70689;52.494;13.420;2023-07-31T09:43:11;2.53;;;1.13;;
81217;SDS011;70689;52.494;13.420;2023-07-31T09:45:39;2.03;;;1.27;;
81217;SDS011;70689;52.494;13.420;2023-07-31T09:48:13;2.97;;;1.33;;
81217;SDS011;70689;52.494;13.420;2023-07-31T09:50:43;1.77;;;1.27;;
81217;SDS011;70689;52.494;13.420;2023-07-31T09:53:11;1.92;;;1.13;;
81217;SDS011;70689;52.494;13.420;2023-07-31T09:55:37;1.70;;;1.10;;
81217;SDS011;70689;52.494;13.420;2023-07-31T09:58:04;4.03;;;2.95;;
81217;SDS011;70689;52.494;13.420;2023-07-31T10:00:32;2.53;;;1.80;;
81217;SDS011;70689;52.494;13.420;2023-07-31T10:02:59;2.15;;;1.40;;
81217;SDS011;70689;52.494;13.420;2023-07-31T10:05:42;1.88;;;1.40;;
81217;SDS011;70689;52.494;13.420;2023-07-31T10:08:14;3.33;;;1.55;;
81217;SDS011;70689;52.494;13.420;2023-07-31T10:10:41;4.78;;;2.05;;
81217;SDS011;70689;52.494;13.420;2023-07-31T10:13:08;3.65;;;2.10;;
81217;SDS011;70689;52.494;13.420;2023-07-31T10:15:34;4.55;;;2.28;;
81217;SDS011;70689;52.494;13.420;2023-07-31T10:18:01;8.07;;;2.47;;
81217;SDS011;70689;52.494;13.420;2023-07-31T10:20:27;4.05;;;2.40;;
81217;SDS011;70689;52.494;13.420;2023-07-31T10:22:57;5.75;;;2.50;;
81217;SDS011;70689;52.494;13.420;2023-07-31T10:25:24;5.28;;;2.90;;
81217;SDS011;70689;52.494;13.420;2023-07-31T10:27:51;5.05;;;2.67;;
81217;SDS011;70689;52.494;13.420;2023-07-31T10:30:18;5.50;;;3.15;;
81217;SDS011;70689;52.494;13.420;2023-07-31T10:32:47;6.63;;;3.17;;
81217;SDS011;70689;52.494;13.420;2023-07-31T10:35:15;5.00;;;2.90;;
81217;SDS011;70689;52.494;13.420;2023-07-31T10:37:42;7.35;;;3.17;;
81217;SDS011;70689;52.494;13.420;2023-07-31T10:43:03;7.38;;;3.47;;
81217;SDS011;70689;52.494;13.420;2023-07-31T10:48:14;4.65;;;3.00;;
81217;SDS011;70689;52.494;13.420;2023-07-31T10:53:28;5.20;;;3.00;;
81217;SDS011;70689;52.494;13.420;2023-07-31T10:56:02;5.82;;;3.10;;
81217;SDS011;70689;52.494;13.420;2023-07-31T10:58:29;5.65;;;2.70;;
81217;SDS011;70689;52.494;13.420;2023-07-31T11:00:57;4.78;;;2.80;;
81217;SDS011;70689;52.494;13.420;2023-07-31T11:03:40;8.35;;;2.90;;
81217;SDS011;70689;52.494;13.420;2023-07-31T11:06:11;5.38;;;2.92;;
81217;SDS011;70689;52.494;13.420;2023-07-31T11:08:42;4.63;;;2.70;;
81217;SDS011;70689;52.494;13.420;2023-07-31T11:11:13;6.05;;;2.72;;
81217;SDS011;70689;52.494;13.420;2023-07-31T11:16:10;5.07;;;2.65;;
81217;SDS011;70689;52.494;13.420;2023-07-31T11:18:40;4.47;;;2.60;;
81217;SDS011;70689;52.494;13.420;2023-07-31T11:21:08;4.10;;;2.50;;
81217;SDS011;70689;52.494;13.420;2023-07-31T11:23:37;6.00;;;2.72;;
81217;SDS011;70689;52.494;13.420;2023-07-31T11:26:04;4.78;;;2.70;;
81217;SDS011;70689;52.494;13.420;2023-07-31T11:28:31;5.40;;;2.65;;
81217;SDS011;70689;52.494;13.420;2023-07-31T11:30:58;6.05;;;2.80;;
81217;SDS011;70689;52.494;13.420;2023-07-31T11:33:25;4.03;;;2.45;;
81217;SDS011;70689;52.494;13.420;2023-07-31T11:35:51;5.30;;;2.58;;
81217;SDS011;70689;52.494;13.420;2023-07-31T11:38:23;5.15;;;2.72;;
81217;SDS011;70689;52.494;13.420;2023-07-31T11:40:50;5.97;;;2.50;;
81217;SDS011;70689;52.494;13.420;2023-07-31T11:43:21;5.03;;;2.72;;
81217;SDS011;70689;52.494;13.420;2023-07-31T11:45:51;4.78;;;2.78;;
81217;SDS011;70689;52.494;13.420;2023-07-31T11:50:52;4.32;;;2.75;;
81217;SDS011;70689;52.494;13.420;2023-07-31T11:53:36;3.30;;;2.40;;
81217;SDS011;70689;52.494;13.420;2023-07-31T11:56:09;4.30;;;2.30;;
81217;SDS011;70689;52.494;13.420;2023-07-31T11:58:38;6.43;;;2.70;;
81217;SDS011;70689;52.494;13.420;2023-07-31T12:01:05;4.82;;;2.67;;
81217;SDS011;70689;52.494;13.420;2023-07-31T12:03:31;7.32;;;2.80;;
81217;SDS011;70689;52.494;13.420;2023-07-31T12:05:58;3.20;;;2.50;;
81217;SDS011;70689;52.494;13.420;2023-07-31T12:08:24;5.50;;;2.75;;
81217;SDS011;70689;52.494;13.420;2023-07-31T12:10:51;4.43;;;2.67;;
81217;SDS011;70689;52.494;13.420;2023-07-31T12:13:24;4.15;;;2.60;;
81217;SDS011;70689;52.494;13.420;2023-07-31T12:15:55;5.05;;;2.55;;
81217;SDS011;70689;52.494;13.420;2023-07-31T12:18:25;4.63;;;2.33;;
81217;SDS011;70689;52.494;13.420;2023-07-31T12:20:55;6.28;;;2.53;;
81217;SDS011;70689;52.494;13.420;2023-07-31T12:23:24;3.88;;;2.40;;
81217;SDS011;70689;52.494;13.420;2023-07-31T12:26:07;4.30;;;2.38;;
81217;SDS011;70689;52.494;13.420;2023-07-31T12:28:49;5.60;;;2.70;;
81217;SDS011;70689;52.494;13.420;2023-07-31T12:31:16;3.90;;;2.25;;
81217;SDS011;70689;52.494;13.420;2023-07-31T12:33:44;4.20;;;2.50;;
81217;SDS011;70689;52.494;13.420;2023-07-31T12:36:14;6.03;;;2.38;;
81217;SDS011;70689;52.494;13.420;2023-07-31T12:38:42;4.30;;;2.38;;
81217;SDS011;70689;52.494;13.420;2023-07-31T12:41:08;3.45;;;2.35;;
81217;SDS011;70689;52.494;13.420;2023-07-31T12:43:37;3.85;;;2.60;;
81217;SDS011;70689;52.494;13.420;2023-07-31T12:46:05;5.43;;;2.25;;
81217;SDS011;70689;52.494;13.420;2023-07-31T12:48:32;6.78;;;2.20;;
81217;SDS011;70689;52.494;13.420;2023-07-31T12:50:58;4.50;;;2.25;;
81217;SDS011;70689;52.494;13.420;2023-07-31T12:53:24;4.35;;;2.15;;
81217;SDS011;70689;52.494;13.420;2023-07-31T12:55:50;4.97;;;2.00;;
81217;SDS011;70689;52.494;13.420;2023-07-31T12:58:15;3.22;;;2.00;;
81217;SDS011;70689;52.494;13.420;2023-07-31T13:00:41;5.05;;;2.28;;
81217;SDS011;70689;52.494;13.420;2023-07-31T13:03:07;3.70;;;1.85;;
81217;SDS011;70689;52.494;13.420;2023-07-31T13:05:33;2.95;;;2.00;;
81217;SDS011;70689;52.494;13.420;2023-07-31T13:07:59;4.47;;;1.90;;
81217;SDS011;70689;52.494;13.420;2023-07-31T13:10:24;6.78;;;1.83;;
81217;SDS011;70689;52.494;13.420;2023-07-31T13:12:53;1.98;;;1.60;;
81217;SDS011;70689;52.494;13.420;2023-07-31T13:15:19;3.80;;;1.70;;
81217;SDS011;70689;52.494;13.420;2023-07-31T13:17:45;3.95;;;1.75;;
81217;SDS011;70689;52.494;13.420;2023-07-31T13:20:11;3.00;;;1.92;;
81217;SDS011;70689;52.494;13.420;2023-07-31T13:22:37;3.03;;;1.83;;
81217;SDS011;70689;52.494;13.420;2023-07-31T13:25:03;2.55;;;1.90;;
81217;SDS011;70689;52.494;13.420;2023-07-31T13:27:30;3.05;;;2.10;;
81217;SDS011;70689;52.494;13.420;2023-07-31T13:29:56;3.45;;;2.13;;
81217;SDS011;70689;52.494;13.420;2023-07-31T13:32:21;3.83;;;2.13;;
81217;SDS011;70689;52.494;13.420;2023-07-31T13:34:47;3.80;;;2.30;;
81217;SDS011;70689;52.494;13.420;2023-07-31T13:37:13;3.95;;;2.30;;
81217;SDS011;70689;52.494;13.420;2023-07-31T13:39:39;3.53;;;2.17;;
81217;SDS011;70689;52.494;13.420;2023-07-31T13:42:07;5.45;;;2.20;;
81217;SDS011;70689;52.494;13.420;2023-07-31T13:44:36;4.43;;;2.40;;
81217;SDS011;70689;52.494;13.420;2023-07-31T13:47:02;5.22;;;2.70;;
81217;SDS011;70689;52.494;13.420;2023-07-31T13:49:28;4.18;;;2.38;;
81217;SDS011;70689;52.494;13.420;2023-07-31T13:51:55;4.18;;;2.33;;
81217;SDS011;70689;52.494;13.420;2023-07-31T13:54:22;4.38;;;2.58;;
81217;SDS011;70689;52.494;13.420;2023-07-31T13:56:48;6.85;;;2.70;;
81217;SDS011;70689;52.494;13.420;2023-07-31T13:59:14;4.80;;;2.40;;
81217;SDS011;70689;52.494;13.420;2023-07-31T14:01:43;5.28;;;2.63;;
81217;SDS011;70689;52.494;13.420;2023-07-31T14:04:09;5.57;;;2.63;;
81217;SDS011;70689;52.494;13.420;2023-07-31T14:06:35;5.68;;;2.67;;
81217;SDS011;70689;52.494;13.420;2023-07-31T14:09:01;4.88;;;2.60;;
81217;SDS011;70689;52.494;13.420;2023-07-31T14:11:28;4.72;;;2.50;;
81217;SDS011;70689;52.494;13.420;2023-07-31T14:13:53;4.68;;;2.83;;
81217;SDS011;70689;52.494;13.420;2023-07-31T14:16:21;3.05;;;2.33;;
81217;SDS011;70689;52.494;13.420;2023-07-31T14:18:47;5.13;;;2.58;;
81217;SDS011;70689;52.494;13.420;2023-07-31T14:21:12;3.97;;;2.63;;
81217;SDS011;70689;52.494;13.420;2023-07-31T14:23:39;5.85;;;2.67;;
81217;SDS011;70689;52.494;13.420;2023-07-31T14:26:05;3.45;;;2.50;;
81217;SDS011;70689;52.494;13.420;2023-07-31T14:28:30;6.18;;;2.67;;
81217;SDS011;70689;52.494;13.420;2023-07-31T14:30:56;4.68;;;2.60;;
81217;SDS011;70689;52.494;13.420;2023-07-31T14:33:22;5.03;;;2.50;;
81217;SDS011;70689;52.494;13.420;2023-07-31T14:35:47;4.70;;;2.50;;
81217;SDS011;70689;52.494;13.420;2023-07-31T14:38:13;8.95;;;2.67;;
81217;SDS011;70689;52.494;13.420;2023-07-31T14:40:39;7.07;;;2.78;;
81217;SDS011;70689;52.494;13.420;2023-07-31T14:43:05;5.30;;;2.70;;
81217;SDS011;70689;52.494;13.420;2023-07-31T14:45:30;6.18;;;2.90;;
81217;SDS011;70689;52.494;13.420;2023-07-31T14:47:56;5.47;;;2.60;;
81217;SDS011;70689;52.494;13.420;2023-07-31T14:50:22;6.35;;;2.75;;
81217;SDS011;70689;52.494;13.420;2023-07-31T14:52:48;6.68;;;2.97;;